sensor_id;sensor_type;location;lat;lon;timestamp;pressure;altitude;pressure_sealevel;temperature;humidity
52927;BME280;40783;49.710;8.842;2023-02-04T00:01:40;100329.09;;;7.02;100.00
52927;BME280;40783;49.710;8.842;2023-02-04T00:04:06;100346.53;;;7.19;100.00
52927;BME280;40783;49.710;8.842;2023-02-04T00:06:33;100350.16;;;7.18;100.00
52927;BME280;40783;49.710;8.842;2023-02-04T00:08:58;100351.44;;;7.12;100.00
52927;BME280;40783;49.710;8.842;2023-02-04T00:11:23;100351.75;;;7.08;100.00
52927;BME280;40783;49.710;8.842;2023-02-04T00:13:51;100354.63;;;7.05;100.00
52927;BME280;40783;49.710;8.842;2023-02-04T00:16:16;100359.09;;;7.04;100.00
52927;BME280;40783;49.710;8.842;2023-02-04T00:18:46;100367.81;;;7.19;100.00
52927;BME280;40783;49.710;8.842;2023-02-04T00:21:11;100359.22;;;7.28;100.00
52927;BME280;40783;49.710;8.842;2023-02-04T00:23:37;100372.53;;;7.28;100.00
52927;BME280;40783;49.710;8.842;2023-02-04T00:26:02;100370.38;;;7.34;100.00
52927;BME280;40783;49.710;8.842;2023-02-04T00:28:27;100367.41;;;7.25;100.00
52927;BME280;40783;49.710;8.842;2023-02-04T00:30:55;100364.00;;;7.23;100.00
52927;BME280;40783;49.710;8.842;2023-02-04T00:33:20;100376.56;;;7.21;100.00
52927;BME280;40783;49.710;8.842;2023-02-04T00:35:46;100366.00;;;7.20;100.00
52927;BME280;40783;49.710;8.842;2023-02-04T00:38:11;100359.31;;;7.14;100.00
52927;BME280;40783;49.710;8.842;2023-02-04T00:40:36;100371.44;;;7.18;100.00
52927;BME280;40783;49.710;8.842;2023-02-04T00:43:03;100364.63;;;7.14;100.00
52927;BME280;40783;49.710;8.842;2023-02-04T00:45:29;100376.13;;;7.27;100.00
52927;BME280;40783;49.710;8.842;2023-02-04T00:47:57;100369.94;;;7.27;100.00
52927;BME280;40783;49.710;8.842;2023-02-04T00:50:24;100376.97;;;7.15;100.00
52927;BME280;40783;49.710;8.842;2023-02-04T00:52:50;100380.38;;;7.17;100.00
52927;BME280;40783;49.710;8.842;2023-02-04T00:55:16;100381.56;;;7.13;100.00
52927;BME280;40783;49.710;8.842;2023-02-04T00:57:44;100384.97;;;7.15;100.00
52927;BME280;40783;49.710;8.842;2023-02-04T01:00:15;100385.28;;;7.23;100.00
52927;BME280;40783;49.710;8.842;2023-02-04T01:02:45;100389.53;;;7.13;100.00
52927;BME280;40783;49.710;8.842;2023-02-04T01:05:12;100394.44;;;7.06;100.00
52927;BME280;40783;49.710;8.842;2023-02-04T01:07:38;100401.66;;;7.04;100.00
52927;BME280;40783;49.710;8.842;2023-02-04T01:10:05;100397.38;;;7.02;100.00
52927;BME280;40783;49.710;8.842;2023-02-04T01:12:31;100396.22;;;7.06;100.00
52927;BME280;40783;49.710;8.842;2023-02-04T01:14:58;100392.06;;;7.02;100.00
52927;BME280;40783;49.710;8.842;2023-02-04T01:17:26;100400.38;;;7.10;100.00
52927;BME280;40783;49.710;8.842;2023-02-04T01:19:53;100396.75;;;7.11;100.00
52927;BME280;40783;49.710;8.842;2023-02-04T01:22:19;100408.69;;;7.18;100.00
52927;BME280;40783;49.710;8.842;2023-02-04T01:24:46;100409.09;;;7.12;100.00
52927;BME280;40783;49.710;8.842;2023-02-04T01:27:13;100412.31;;;7.17;100.00
52927;BME280;40783;49.710;8.842;2023-02-04T01:29:39;100414.56;;;7.10;100.00
52927;BME280;40783;49.710;8.842;2023-02-04T01:32:04;100412.09;;;7.07;100.00
52927;BME280;40783;49.710;8.842;2023-02-04T01:34:30;100414.84;;;7.06;100.00
52927;BME280;40783;49.710;8.842;2023-02-04T01:36:55;100418.66;;;7.02;100.00
52927;BME280;40783;49.710;8.842;2023-02-04T01:39:23;100409.09;;;6.99;100.00
52927;BME280;40783;49.710;8.842;2023-02-04T01:41:51;100410.34;;;6.93;100.00
52927;BME280;40783;49.710;8.842;2023-02-04T01:44:18;100412.50;;;6.88;100.00
52927;BME280;40783;49.710;8.842;2023-02-04T01:46:44;100412.69;;;6.85;100.00
52927;BME280;40783;49.710;8.842;2023-02-04T01:49:09;100418.22;;;6.82;100.00
52927;BME280;40783;49.710;8.842;2023-02-04T01:51:35;100417.28;;;6.83;100.00
52927;BME280;40783;49.710;8.842;2023-02-04T01:54:01;100422.91;;;6.91;100.00
52927;BME280;40783;49.710;8.842;2023-02-04T01:56:30;100412.91;;;6.82;100.00
52927;BME280;40783;49.710;8.842;2023-02-04T01:58:58;100408.34;;;6.84;100.00
52927;BME280;40783;49.710;8.842;2023-02-04T02:04:08;100414.81;;;6.80;100.00
52927;BME280;40783;49.710;8.842;2023-02-04T02:06:35;100414.16;;;6.89;100.00
52927;BME280;40783;49.710;8.842;2023-02-04T02:09:01;100414.41;;;6.86;100.00
52927;BME280;40783;49.710;8.842;2023-02-04T02:11:31;100415.44;;;6.83;100.00
52927;BME280;40783;49.710;8.842;2023-02-04T02:13:57;100430.75;;;6.80;100.00
52927;BME280;40783;49.710;8.842;2023-02-04T02:16:23;100427.16;;;6.81;100.00
52927;BME280;40783;49.710;8.842;2023-02-04T02:18:51;100430.75;;;6.80;100.00
52927;BME280;40783;49.710;8.842;2023-02-04T02:21:46;100430.56;;;6.83;100.00
52927;BME280;40783;49.710;8.842;2023-02-04T02:26:48;100443.09;;;6.81;100.00
52927;BME280;40783;49.710;8.842;2023-02-04T02:29:14;100440.53;;;6.79;100.00
52927;BME280;40783;49.710;8.842;2023-02-04T02:31:39;100436.09;;;6.80;100.00
52927;BME280;40783;49.710;8.842;2023-02-04T02:34:09;100434.78;;;6.73;100.00
52927;BME280;40783;49.710;8.842;2023-02-04T02:36:35;100432.66;;;6.78;100.00
52927;BME280;40783;49.710;8.842;2023-02-04T02:39:00;100435.63;;;6.73;100.00
52927;BME280;40783;49.710;8.842;2023-02-04T02:41:26;100434.78;;;6.73;100.00
52927;BME280;40783;49.710;8.842;2023-02-04T02:43:53;100438.41;;;6.72;100.00
52927;BME280;40783;49.710;8.842;2023-02-04T02:46:19;100440.91;;;6.60;100.00
52927;BME280;40783;49.710;8.842;2023-02-04T02:48:44;100436.19;;;6.51;100.00
52927;BME280;40783;49.710;8.842;2023-02-04T02:51:09;100448.72;;;6.49;100.00
52927;BME280;40783;49.710;8.842;2023-02-04T02:53:35;100446.81;;;6.51;100.00
52927;BME280;40783;49.710;8.842;2023-02-04T02:56:00;100453.47;;;6.44;100.00
52927;BME280;40783;49.710;8.842;2023-02-04T02:58:31;100463.78;;;6.35;100.00
52927;BME280;40783;49.710;8.842;2023-02-04T03:01:01;100462.72;;;6.38;100.00
52927;BME280;40783;49.710;8.842;2023-02-04T03:03:47;100467.06;;;6.39;100.00
52927;BME280;40783;49.710;8.842;2023-02-04T03:06:16;100468.59;;;6.29;100.00
52927;BME280;40783;49.710;8.842;2023-02-04T03:08:45;100473.47;;;6.22;100.00
52927;BME280;40783;49.710;8.842;2023-02-04T03:11:11;100475.56;;;6.17;100.00
52927;BME280;40783;49.710;8.842;2023-02-04T03:13:41;100479.34;;;6.27;100.00
52927;BME280;40783;49.710;8.842;2023-02-04T03:16:07;100481.81;;;6.30;100.00
52927;BME280;40783;49.710;8.842;2023-02-04T03:18:33;100481.63;;;6.33;100.00
52927;BME280;40783;49.710;8.842;2023-02-04T03:21:00;100496.81;;;6.31;100.00
52927;BME280;40783;49.710;8.842;2023-02-04T03:23:28;100489.03;;;6.28;100.00
52927;BME280;40783;49.710;8.842;2023-02-04T03:25:54;100492.63;;;6.27;100.00
52927;BME280;40783;49.710;8.842;2023-02-04T03:28:21;100498.34;;;6.21;100.00
52927;BME280;40783;49.710;8.842;2023-02-04T03:30:49;100501.06;;;6.19;100.00
52927;BME280;40783;49.710;8.842;2023-02-04T03:33:24;100507.31;;;6.18;100.00
52927;BME280;40783;49.710;8.842;2023-02-04T03:35:51;100502.97;;;6.17;100.00
52927;BME280;40783;49.710;8.842;2023-02-04T03:38:16;100510.09;;;6.17;100.00
52927;BME280;40783;49.710;8.842;2023-02-04T03:40:42;100507.25;;;6.20;100.00
52927;BME280;40783;49.710;8.842;2023-02-04T03:43:11;100514.25;;;6.21;100.00
52927;BME280;40783;49.710;8.842;2023-02-04T03:45:38;100521.56;;;6.17;100.00
52927;BME280;40783;49.710;8.842;2023-02-04T03:48:06;100519.59;;;6.21;100.00
52927;BME280;40783;49.710;8.842;2023-02-04T03:50:31;100523.56;;;6.14;100.00
52927;BME280;40783;49.710;8.842;2023-02-04T03:52:57;100528.88;;;6.14;100.00
52927;BME280;40783;49.710;8.842;2023-02-04T03:55:22;100534.00;;;6.17;100.00
52927;BME280;40783;49.710;8.842;2023-02-04T03:57:49;100526.13;;;6.15;100.00
52927;BME280;40783;49.710;8.842;2023-02-04T04:00:15;100528.50;;;6.20;100.00
52927;BME280;40783;49.710;8.842;2023-02-04T04:02:40;100527.34;;;6.09;100.00
52927;BME280;40783;49.710;8.842;2023-02-04T04:05:09;100542.91;;;6.01;100.00
52927;BME280;40783;49.710;8.842;2023-02-04T04:07:34;100541.78;;;6.05;100.00
52927;BME280;40783;49.710;8.842;2023-02-04T04:10:00;100557.91;;;6.02;100.00
52927;BME280;40783;49.710;8.842;2023-02-04T04:12:25;100558.22;;;5.96;100.00
52927;BME280;40783;49.710;8.842;2023-02-04T04:14:51;100556.53;;;5.95;100.00
52927;BME280;40783;49.710;8.842;2023-02-04T04:17:20;100556.09;;;6.03;100.00
52927;BME280;40783;49.710;8.842;2023-02-04T04:19:46;100554.28;;;6.03;100.00
52927;BME280;40783;49.710;8.842;2023-02-04T04:22:11;100551.81;;;6.00;100.00
52927;BME280;40783;49.710;8.842;2023-02-04T04:24:36;100556.00;;;6.04;100.00
52927;BME280;40783;49.710;8.842;2023-02-04T04:27:02;100562.59;;;5.97;100.00
52927;BME280;40783;49.710;8.842;2023-02-04T04:29:27;100565.69;;;6.05;100.00
52927;BME280;40783;49.710;8.842;2023-02-04T04:31:57;100560.94;;;6.11;100.00
52927;BME280;40783;49.710;8.842;2023-02-04T04:34:22;100564.31;;;5.98;100.00
52927;BME280;40783;49.710;8.842;2023-02-04T04:36:50;100566.81;;;6.01;100.00
52927;BME280;40783;49.710;8.842;2023-02-04T04:39:18;100582.44;;;5.91;100.00
52927;BME280;40783;49.710;8.842;2023-02-04T04:41:43;100584.03;;;5.94;100.00
52927;BME280;40783;49.710;8.842;2023-02-04T04:44:08;100591.66;;;6.00;100.00
52927;BME280;40783;49.710;8.842;2023-02-04T04:46:34;100588.94;;;5.86;100.00
52927;BME280;40783;49.710;8.842;2023-02-04T04:48:59;100591.22;;;5.92;100.00
52927;BME280;40783;49.710;8.842;2023-02-04T04:51:24;100585.44;;;5.85;100.00
52927;BME280;40783;49.710;8.842;2023-02-04T04:53:49;100579.19;;;5.86;100.00
52927;BME280;40783;49.710;8.842;2023-02-04T04:56:17;100579.84;;;5.90;100.00
52927;BME280;40783;49.710;8.842;2023-02-04T04:58:45;100578.13;;;5.89;100.00
52927;BME280;40783;49.710;8.842;2023-02-04T05:01:10;100576.44;;;5.88;100.00
52927;BME280;40783;49.710;8.842;2023-02-04T05:03:38;100578.91;;;5.91;100.00
52927;BME280;40783;49.710;8.842;2023-02-04T05:06:05;100576.63;;;5.85;100.00
52927;BME280;40783;49.710;8.842;2023-02-04T05:08:32;100568.28;;;5.76;100.00
52927;BME280;40783;49.710;8.842;2023-02-04T05:11:02;100566.75;;;5.72;100.00
52927;BME280;40783;49.710;8.842;2023-02-04T05:13:30;100568.28;;;5.76;100.00
52927;BME280;40783;49.710;8.842;2023-02-04T05:15:57;100566.66;;;5.74;100.00
52927;BME280;40783;49.710;8.842;2023-02-04T05:18:23;100574.72;;;5.72;100.00
52927;BME280;40783;49.710;8.842;2023-02-04T05:20:48;100584.22;;;5.76;100.00
52927;BME280;40783;49.710;8.842;2023-02-04T05:23:16;100598.59;;;5.72;100.00
52927;BME280;40783;49.710;8.842;2023-02-04T05:25:41;100595.00;;;5.73;100.00
52927;BME280;40783;49.710;8.842;2023-02-04T05:28:06;100587.13;;;5.72;100.00
52927;BME280;40783;49.710;8.842;2023-02-04T05:30:32;100584.38;;;5.73;100.00
52927;BME280;40783;49.710;8.842;2023-02-04T05:32:59;100596.38;;;5.64;100.00
52927;BME280;40783;49.710;8.842;2023-02-04T05:35:27;100595.81;;;5.59;100.00
52927;BME280;40783;49.710;8.842;2023-02-04T05:37:52;100596.09;;;5.55;100.00
52927;BME280;40783;49.710;8.842;2023-02-04T05:40:20;100606.97;;;5.50;100.00
52927;BME280;40783;49.710;8.842;2023-02-04T05:42:45;100603.91;;;5.42;100.00
52927;BME280;40783;49.710;8.842;2023-02-04T05:45:13;100609.28;;;5.40;100.00
52927;BME280;40783;49.710;8.842;2023-02-04T05:47:39;100607.94;;;5.33;100.00
52927;BME280;40783;49.710;8.842;2023-02-04T05:50:05;100611.34;;;5.35;100.00
52927;BME280;40783;49.710;8.842;2023-02-04T05:52:30;100617.59;;;5.34;100.00
52927;BME280;40783;49.710;8.842;2023-02-04T05:54:58;100606.06;;;5.35;100.00
52927;BME280;40783;49.710;8.842;2023-02-04T05:57:23;100600.94;;;5.32;100.00
52927;BME280;40783;49.710;8.842;2023-02-04T05:59:48;100605.88;;;5.38;100.00
52927;BME280;40783;49.710;8.842;2023-02-04T06:02:16;100619.56;;;5.46;100.00
52927;BME280;40783;49.710;8.842;2023-02-04T06:04:41;100614.44;;;5.43;100.00
52927;BME280;40783;49.710;8.842;2023-02-04T06:07:06;100613.25;;;5.33;100.00
52927;BME280;40783;49.710;8.842;2023-02-04T06:09:32;100616.19;;;5.28;100.00
52927;BME280;40783;49.710;8.842;2023-02-04T06:11:59;100618.75;;;5.30;100.00
52927;BME280;40783;49.710;8.842;2023-02-04T06:14:25;100623.19;;;5.29;100.00
52927;BME280;40783;49.710;8.842;2023-02-04T06:16:50;100620.63;;;5.28;100.00
52927;BME280;40783;49.710;8.842;2023-02-04T06:19:18;100625.06;;;5.27;100.00
52927;BME280;40783;49.710;8.842;2023-02-04T06:21:43;100618.94;;;5.27;100.00
52927;BME280;40783;49.710;8.842;2023-02-04T06:24:11;100620.81;;;5.25;100.00
52927;BME280;40783;49.710;8.842;2023-02-04T06:26:37;100635.69;;;5.27;100.00
52927;BME280;40783;49.710;8.842;2023-02-04T06:29:04;100636.56;;;5.28;100.00
52927;BME280;40783;49.710;8.842;2023-02-04T06:31:30;100638.44;;;5.26;100.00
52927;BME280;40783;49.710;8.842;2023-02-04T06:33:55;100656.25;;;5.24;100.00
52927;BME280;40783;49.710;8.842;2023-02-04T06:36:20;100658.13;;;5.22;100.00
52927;BME280;40783;49.710;8.842;2023-02-04T06:38:46;100654.88;;;5.16;100.00
52927;BME280;40783;49.710;8.842;2023-02-04T06:41:13;100666.41;;;5.15;100.00
52927;BME280;40783;49.710;8.842;2023-02-04T06:43:43;100663.00;;;5.13;100.00
52927;BME280;40783;49.710;8.842;2023-02-04T06:46:11;100659.75;;;5.08;100.00
52927;BME280;40783;49.710;8.842;2023-02-04T06:48:38;100657.44;;;5.02;100.00
52927;BME280;40783;49.710;8.842;2023-02-04T06:51:04;100669.47;;;4.92;100.00
52927;BME280;40783;49.710;8.842;2023-02-04T06:53:29;100669.56;;;4.90;100.00
52927;BME280;40783;49.710;8.842;2023-02-04T06:55:57;100668.63;;;4.91;100.00
52927;BME280;40783;49.710;8.842;2023-02-04T06:58:22;100667.31;;;4.82;100.00
52927;BME280;40783;49.710;8.842;2023-02-04T07:00:47;100675.38;;;4.81;100.00
52927;BME280;40783;49.710;8.842;2023-02-04T07:03:15;100689.53;;;4.64;100.00
52927;BME280;40783;49.710;8.842;2023-02-04T07:05:43;100684.25;;;4.64;100.00
52927;BME280;40783;49.710;8.842;2023-02-04T07:08:08;100681.81;;;4.59;100.00
52927;BME280;40783;49.710;8.842;2023-02-04T07:10:33;100680.66;;;4.65;100.00
52927;BME280;40783;49.710;8.842;2023-02-04T07:12:58;100688.47;;;4.50;100.00
52927;BME280;40783;49.710;8.842;2023-02-04T07:15:24;100704.25;;;4.69;100.00
52927;BME280;40783;49.710;8.842;2023-02-04T07:17:49;100697.00;;;4.73;100.00
52927;BME280;40783;49.710;8.842;2023-02-04T07:20:17;100706.72;;;4.72;100.00
52927;BME280;40783;49.710;8.842;2023-02-04T07:22:47;100715.38;;;4.76;100.00
52927;BME280;40783;49.710;8.842;2023-02-04T07:25:15;100718.63;;;4.81;100.00
52927;BME280;40783;49.710;8.842;2023-02-04T07:27:41;100718.28;;;4.87;100.00
52927;BME280;40783;49.710;8.842;2023-02-04T07:30:09;100731.56;;;4.87;100.00
52927;BME280;40783;49.710;8.842;2023-02-04T07:32:35;100731.63;;;4.70;100.00
52927;BME280;40783;49.710;8.842;2023-02-04T07:35:00;100735.09;;;4.70;100.00
52927;BME280;40783;49.710;8.842;2023-02-04T07:37:26;100735.19;;;4.69;100.00
52927;BME280;40783;49.710;8.842;2023-02-04T07:39:51;100745.72;;;4.53;100.00
52927;BME280;40783;49.710;8.842;2023-02-04T07:42:19;100744.72;;;4.55;100.00
52927;BME280;40783;49.710;8.842;2023-02-04T07:44:48;100749.25;;;4.53;100.00
52927;BME280;40783;49.710;8.842;2023-02-04T07:47:14;100745.63;;;4.72;100.00
52927;BME280;40783;49.710;8.842;2023-02-04T07:49:39;100762.75;;;4.82;100.00
52927;BME280;40783;49.710;8.842;2023-02-04T07:52:06;100762.25;;;4.92;100.00
52927;BME280;40783;49.710;8.842;2023-02-04T07:54:32;100760.38;;;4.94;100.00
52927;BME280;40783;49.710;8.842;2023-02-04T07:56:57;100762.66;;;5.01;100.00
52927;BME280;40783;49.710;8.842;2023-02-04T07:59:25;100761.13;;;5.13;100.00
52927;BME280;40783;49.710;8.842;2023-02-04T08:01:52;100768.75;;;5.19;100.00
52927;BME280;40783;49.710;8.842;2023-02-04T08:04:18;100774.97;;;5.18;100.00
52927;BME280;40783;49.710;8.842;2023-02-04T08:06:43;100772.78;;;5.27;100.00
52927;BME280;40783;49.710;8.842;2023-02-04T08:09:08;100769.50;;;5.22;100.00
52927;BME280;40783;49.710;8.842;2023-02-04T08:11:35;100780.44;;;5.15;100.00
52927;BME280;40783;49.710;8.842;2023-02-04T08:14:03;100783.72;;;5.20;100.00
52927;BME280;40783;49.710;8.842;2023-02-04T08:16:28;100786.81;;;5.29;100.00
52927;BME280;40783;49.710;8.842;2023-02-04T08:18:54;100783.22;;;5.30;100.00
52927;BME280;40783;49.710;8.842;2023-02-04T08:21:23;100786.81;;;5.29;100.00
52927;BME280;40783;49.710;8.842;2023-02-04T08:23:51;100792.28;;;5.26;100.00
52927;BME280;40783;49.710;8.842;2023-02-04T08:26:21;100792.44;;;5.23;100.00
52927;BME280;40783;49.710;8.842;2023-02-04T08:28:46;100795.25;;;5.19;100.00
52927;BME280;40783;49.710;8.842;2023-02-04T08:31:11;100796.97;;;5.20;100.00
52927;BME280;40783;49.710;8.842;2023-02-04T08:33:40;100803.00;;;5.07;100.00
52927;BME280;40783;49.710;8.842;2023-02-04T08:36:06;100803.00;;;5.07;100.00
52927;BME280;40783;49.710;8.842;2023-02-04T08:38:31;100814.31;;;5.10;100.00
52927;BME280;40783;49.710;8.842;2023-02-04T08:40:59;100819.47;;;5.13;100.00
52927;BME280;40783;49.710;8.842;2023-02-04T08:43:25;100816.19;;;5.08;100.00
52927;BME280;40783;49.710;8.842;2023-02-04T08:45:50;100823.22;;;5.09;100.00
52927;BME280;40783;49.710;8.842;2023-02-04T08:48:16;100834.28;;;5.17;100.00
52927;BME280;40783;49.710;8.842;2023-02-04T08:50:48;100835.81;;;5.22;100.00
52927;BME280;40783;49.710;8.842;2023-02-04T08:53:13;100832.41;;;5.19;100.00
52927;BME280;40783;49.710;8.842;2023-02-04T08:55:38;100841.38;;;5.33;100.00
52927;BME280;40783;49.710;8.842;2023-02-04T08:58:06;100842.94;;;5.37;100.00
52927;BME280;40783;49.710;8.842;2023-02-04T09:00:31;100838.69;;;5.50;100.00
52927;BME280;40783;49.710;8.842;2023-02-04T09:02:56;100850.50;;;5.61;100.00
52927;BME280;40783;49.710;8.842;2023-02-04T09:05:22;100844.16;;;5.63;100.00
52927;BME280;40783;49.710;8.842;2023-02-04T09:07:47;100859.41;;;5.76;100.00
52927;BME280;40783;49.710;8.842;2023-02-04T09:10:12;100863.94;;;5.90;100.00
52927;BME280;40783;49.710;8.842;2023-02-04T09:12:40;100853.94;;;5.95;100.00
52927;BME280;40783;49.710;8.842;2023-02-04T09:15:09;100860.78;;;5.99;100.00
52927;BME280;40783;49.710;8.842;2023-02-04T09:17:34;100866.09;;;5.99;100.00
52927;BME280;40783;49.710;8.842;2023-02-04T09:20:00;100869.88;;;5.95;100.00
52927;BME280;40783;49.710;8.842;2023-02-04T09:22:27;100863.38;;;6.17;100.00
52927;BME280;40783;49.710;8.842;2023-02-04T09:24:55;100872.47;;;6.13;100.00
52927;BME280;40783;49.710;8.842;2023-02-04T09:27:22;100859.69;;;6.19;100.00
52927;BME280;40783;49.710;8.842;2023-02-04T09:29:47;100861.50;;;6.19;100.00
52927;BME280;40783;49.710;8.842;2023-02-04T09:32:13;100860.63;;;6.34;100.00
52927;BME280;40783;49.710;8.842;2023-02-04T09:34:38;100864.06;;;6.20;100.00
52927;BME280;40783;49.710;8.842;2023-02-04T09:37:03;100866.13;;;6.31;100.00
52927;BME280;40783;49.710;8.842;2023-02-04T09:39:28;100870.88;;;6.41;100.00
52927;BME280;40783;49.710;8.842;2023-02-04T09:41:54;100874.66;;;6.36;100.00
52927;BME280;40783;49.710;8.842;2023-02-04T09:44:22;100876.19;;;6.41;100.00
52927;BME280;40783;49.710;8.842;2023-02-04T09:46:54;100881.31;;;6.44;100.00
52927;BME280;40783;49.710;8.842;2023-02-04T09:49:21;100881.56;;;6.08;100.00
52927;BME280;40783;49.710;8.842;2023-02-04T09:51:47;100893.03;;;6.25;100.00
52927;BME280;40783;49.710;8.842;2023-02-04T09:54:21;100884.97;;;6.11;100.00
52927;BME280;40783;49.710;8.842;2023-02-04T09:56:50;100897.97;;;5.99;100.00
52927;BME280;40783;49.710;8.842;2023-02-04T09:59:18;100895.56;;;5.78;100.00
52927;BME280;40783;49.710;8.842;2023-02-04T10:01:54;100904.84;;;6.03;100.00
52927;BME280;40783;49.710;8.842;2023-02-04T10:04:22;100903.47;;;6.12;100.00
52927;BME280;40783;49.710;8.842;2023-02-04T10:06:49;100914.97;;;6.13;100.00
52927;BME280;40783;49.710;8.842;2023-02-04T10:09:16;100913.44;;;6.08;100.00
52927;BME280;40783;49.710;8.842;2023-02-04T10:11:43;100912.59;;;6.08;100.00
52927;BME280;40783;49.710;8.842;2023-02-04T10:14:15;100915.47;;;6.03;100.00
52927;BME280;40783;49.710;8.842;2023-02-04T10:16:53;100914.81;;;6.16;100.00
52927;BME280;40783;49.710;8.842;2023-02-04T10:19:19;100907.59;;;6.18;100.00
52927;BME280;40783;49.710;8.842;2023-02-04T10:21:46;100909.97;;;6.38;100.00
52927;BME280;40783;49.710;8.842;2023-02-04T10:24:19;100914.56;;;6.51;100.00
52927;BME280;40783;49.710;8.842;2023-02-04T10:26:46;100909.78;;;6.42;100.00
52927;BME280;40783;49.710;8.842;2023-02-04T10:29:16;100922.13;;;6.59;100.00
52927;BME280;40783;49.710;8.842;2023-02-04T10:31:46;100926.22;;;6.64;100.00
52927;BME280;40783;49.710;8.842;2023-02-04T10:36:43;100926.88;;;6.68;100.00
52927;BME280;40783;49.710;8.842;2023-02-04T10:39:13;100923.31;;;6.53;100.00
52927;BME280;40783;49.710;8.842;2023-02-04T10:42:05;100933.25;;;6.65;100.00
52927;BME280;40783;49.710;8.842;2023-02-04T10:44:32;100932.97;;;6.70;100.00
52927;BME280;40783;49.710;8.842;2023-02-04T10:49:27;100920.19;;;6.77;100.00
52927;BME280;40783;49.710;8.842;2023-02-04T10:51:55;100929.53;;;6.84;100.00
52927;BME280;40783;49.710;8.842;2023-02-04T10:54:24;100923.63;;;6.79;100.00
52927;BME280;40783;49.710;8.842;2023-02-04T10:57:26;100929.47;;;6.70;100.00
52927;BME280;40783;49.710;8.842;2023-02-04T11:00:02;100921.31;;;6.73;100.00
52927;BME280;40783;49.710;8.842;2023-02-04T11:02:48;100917.03;;;6.70;100.00
52927;BME280;40783;49.710;8.842;2023-02-04T11:05:18;100920.03;;;6.80;100.00
52927;BME280;40783;49.710;8.842;2023-02-04T11:07:45;100915.28;;;6.85;100.00
52927;BME280;40783;49.710;8.842;2023-02-04T11:10:20;100920.31;;;6.90;100.00
52927;BME280;40783;49.710;8.842;2023-02-04T11:15:37;100914.94;;;7.06;100.00
52927;BME280;40783;49.710;8.842;2023-02-04T11:20:51;100910.03;;;7.14;100.00
52927;BME280;40783;49.710;8.842;2023-02-04T11:26:34;100920.56;;;7.16;98.65
52927;BME280;40783;49.710;8.842;2023-02-04T11:39:28;100931.84;;;6.74;100.00
52927;BME280;40783;49.710;8.842;2023-02-04T11:41:58;100930.06;;;6.75;97.75
52927;BME280;40783;49.710;8.842;2023-02-04T11:44:25;100927.59;;;6.72;98.34
52927;BME280;40783;49.710;8.842;2023-02-04T11:46:52;100921.41;;;6.71;99.29
52927;BME280;40783;49.710;8.842;2023-02-04T11:49:27;100933.06;;;6.68;100.00
52927;BME280;40783;49.710;8.842;2023-02-04T11:52:04;100933.78;;;6.56;100.00
52927;BME280;40783;49.710;8.842;2023-02-04T11:54:33;100926.03;;;6.67;100.00
52927;BME280;40783;49.710;8.842;2023-02-04T11:57:01;100924.81;;;6.73;98.09
52927;BME280;40783;49.710;8.842;2023-02-04T11:59:26;100935.63;;;6.86;95.37
52927;BME280;40783;49.710;8.842;2023-02-04T12:02:03;100914.75;;;7.09;95.28
52927;BME280;40783;49.710;8.842;2023-02-04T12:04:28;100917.06;;;7.15;99.24
52927;BME280;40783;49.710;8.842;2023-02-04T12:06:59;100911.38;;;7.36;99.88
52927;BME280;40783;49.710;8.842;2023-02-04T12:09:26;100922.97;;;7.49;96.36
52927;BME280;40783;49.710;8.842;2023-02-04T12:11:58;100917.06;;;7.58;94.77
52927;BME280;40783;49.710;8.842;2023-02-04T12:16:57;100916.13;;;7.45;92.21
52927;BME280;40783;49.710;8.842;2023-02-04T12:19:24;100928.78;;;7.56;90.08
52927;BME280;40783;49.710;8.842;2023-02-04T12:21:50;100922.41;;;7.73;88.00
52927;BME280;40783;49.710;8.842;2023-02-04T12:24:19;100923.91;;;7.63;87.61
52927;BME280;40783;49.710;8.842;2023-02-04T12:26:44;100928.09;;;7.52;87.15
52927;BME280;40783;49.710;8.842;2023-02-04T12:29:11;100931.91;;;7.63;89.15
52927;BME280;40783;49.710;8.842;2023-02-04T12:31:37;100933.63;;;7.49;87.78
52927;BME280;40783;49.710;8.842;2023-02-04T12:34:04;100928.78;;;7.41;88.82
52927;BME280;40783;49.710;8.842;2023-02-04T12:36:30;100938.00;;;7.36;93.21
52927;BME280;40783;49.710;8.842;2023-02-04T12:38:56;100933.81;;;7.46;93.05
52927;BME280;40783;49.710;8.842;2023-02-04T12:41:27;100931.53;;;7.25;91.80
52927;BME280;40783;49.710;8.842;2023-02-04T12:43:52;100934.94;;;7.27;93.11
52927;BME280;40783;49.710;8.842;2023-02-04T12:46:19;100935.31;;;7.21;92.74
52927;BME280;40783;49.710;8.842;2023-02-04T12:48:45;100946.44;;;7.28;91.80
52927;BME280;40783;49.710;8.842;2023-02-04T12:51:12;100952.53;;;7.45;91.65
52927;BME280;40783;49.710;8.842;2023-02-04T12:53:38;100954.63;;;7.39;90.91
52927;BME280;40783;49.710;8.842;2023-02-04T12:56:05;100949.59;;;7.49;91.69
52927;BME280;40783;49.710;8.842;2023-02-04T12:58:31;100945.81;;;7.39;88.91
52927;BME280;40783;49.710;8.842;2023-02-04T13:00:58;100941.97;;;7.28;90.76
52927;BME280;40783;49.710;8.842;2023-02-04T13:03:26;100939.09;;;7.17;89.61
52927;BME280;40783;49.710;8.842;2023-02-04T13:05:54;100940.59;;;7.07;90.00
52927;BME280;40783;49.710;8.842;2023-02-04T13:08:20;100938.03;;;7.20;92.51
52927;BME280;40783;49.710;8.842;2023-02-04T13:10:45;100930.38;;;7.30;91.41
52927;BME280;40783;49.710;8.842;2023-02-04T13:13:16;100933.59;;;7.20;90.23
52927;BME280;40783;49.710;8.842;2023-02-04T13:15:42;100927.16;;;7.24;89.46
52927;BME280;40783;49.710;8.842;2023-02-04T13:18:07;100939.28;;;7.14;90.37
52927;BME280;40783;49.710;8.842;2023-02-04T13:20:32;100939.53;;;7.40;91.50
52927;BME280;40783;49.710;8.842;2023-02-04T13:22:58;100941.97;;;7.43;88.99